Latest Coastal Weather Observations for Hamilton Island

IDQ60701

Issued at 10:12 am EST Monday 25 July 2016 (issued every 10 minutes, with the page automatically refreshed every 10 minutes)

About coastal observations | Map of coastal stations | Coastal observations for QLD | Marine services | Other Formats
Station Details ID: 033106 Name: HAMILTON ISLAND AIRPORT Lat: -20.37 Lon: 148.95 Height: 58.66 m
Data from the previous 72 hours. | See also: Recent months at Hamilton Island
Date/Time
EST
Temp
°C
Wind Pressure Rain since
9am
mm
Weather Cloud Vis
km
Sea
Height
m
Swell
Dir  Spd
kts
Gust
kts
hPa Trend Height
m
Period
s
Dir
25/10:00am 22.8 SSE 9 11 1018.2 - 0.0 - Partly cloudy 10 - - - -
25/09:30am 22.3 SSE 8 10 1018.2 - 0.0 - Partly cloudy 10 - - - -
25/09:00am 22.8 SE 6 6 1018.0 - 0.0 - Mostly cloudy 10 - - - -
25/08:30am 23.2 SSE 5 7 1018.1 - 0.0 - Partly cloudy 10 - - - -
25/08:00am 22.4 WNW 1 4 1017.7 - 0.0 - - 10 - - - -
25/07:30am 21.3 CALM 0 0 1017.3 - 0.0 - - 10 - - - -
25/07:00am 20.7 NW 3 4 1016.9 - 0.0 - - 10 - - - -
25/06:30am 20.6 N 1 3 1016.6 - 0.0 - - 10 - - - -
25/06:00am 20.7 N 1 3 1016.4 - 0.0 - - 10 - - - -
25/05:30am 20.8 CALM 0 0 1016.1 - 0.0 - - 10 - - - -
25/05:00am 20.8 WSW 3 5 1016.0 - 0.0 - - 10 - - - -
25/04:30am 20.6 NNW 1 5 1015.6 - 0.0 - - 10 - - - -
25/04:00am 21.0 CALM 0 0 1015.7 - 0.0 - - 10 - - - -
25/03:30am 21.0 CALM 0 0 1015.7 - 0.0 - - 10 - - - -
25/03:00am 21.0 CALM 0 0 1015.7 - 0.0 - - 10 - - - -
25/02:30am 21.1 CALM 0 3 1015.9 - 0.0 - - 10 - - - -
25/02:00am 21.5 NNW 2 4 1015.9 - 0.0 - - 10 - - - -
25/01:30am 21.2 NE 3 4 1016.0 - 0.0 - Partly cloudy 10 - - - -
25/01:00am 21.3 E 3 4 1016.1 - 0.0 - Partly cloudy 10 - - - -
25/12:30am 20.9 CALM 0 0 1016.4 - 0.0 - - 10 - - - -
25/12:00am 21.0 N 3 5 1016.3 - 0.0 - - 10 - - - -
 
Date/Time
EST
Temp
°C
Wind Pressure Rain since
9am
mm
Weather Cloud Vis
km
Sea
Height
m
Swell
Dir  Spd
kts
Gust
kts
hPa Trend Height
m
Period
s
Dir
24/11:30pm 21.0 NW 5 6 1016.3 - 0.0 - - 10 - - - -
24/11:00pm 21.0 NW 5 5 1016.4 - 0.0 - - 10 - - - -
24/10:30pm 21.2 WNW 4 4 1016.5 - 0.0 - - 10 - - - -
24/10:00pm 21.3 WNW 5 5 1016.5 - 0.0 - - 10 - - - -
24/09:30pm 21.6 NW 6 7 1016.2 - 0.0 - - 10 - - - -
24/09:00pm 21.6 NW 6 7 1015.9 - 0.0 - - 10 - - - -
24/08:30pm 21.7 NNW 6 7 1015.7 - 0.0 - - 10 - - - -
24/08:00pm 21.9 NNW 6 7 1015.6 - 0.0 - - 10 - - - -
24/07:30pm 22.1 NNW 7 8 1015.4 - 0.0 - Partly cloudy 10 - - - -
24/07:00pm 22.3 NNW 7 9 1015.1 - 0.0 - - 10 - - - -
24/06:30pm 22.6 NNW 9 11 1014.8 - 0.0 - - 10 - - - -
24/06:00pm 22.7 NW 9 11 1014.4 - 0.0 - - 10 - - - -
24/05:30pm 23.3 NW 10 12 1014.3 - 0.0 - - 10 - - - -
24/05:00pm 24.1 NNW 9 11 1014.3 - 0.0 - - 10 - - - -
24/04:30pm 25.1 NNW 7 9 1014.2 - 0.0 - - 10 - - - -
24/04:00pm 25.1 NW 6 8 1014.1 - 0.0 - - 10 - - - -
24/03:30pm 25.7 NNW 7 9 1013.9 - 0.0 - - 10 - - - -
24/03:00pm 25.4 NNW 7 8 1013.7 - 0.0 - - 10 - - - -
24/02:30pm 26.0 NNW 5 6 1014.0 - 0.0 - - 10 - - - -
24/02:00pm 26.2 NNW 5 7 1014.2 - 0.0 - - 10 - - - -
24/01:30pm 24.9 ESE 3 5 1014.7 - 0.0 - - 10 - - - -
24/01:00pm 25.4 NNW 6 7 1014.9 - 0.0 - - 10 - - - -
24/12:30pm 25.8 NNW 7 8 1015.3 - 0.0 - - 10 - - - -
24/12:00pm 25.1 NNW 7 8 1015.7 - 0.0 - - 10 - - - -
24/11:30am 24.4 WNW 8 9 1016.1 - 0.0 - - 10 - - - -
24/11:00am 24.5 NW 6 8 1016.5 - 0.0 - - 10 - - - -
24/10:30am 24.0 NNW 8 10 1016.7 - 0.0 - - 10 - - - -
24/10:00am 23.6 NW 7 9 1017.0 - 0.0 - - 10 - - - -
24/09:30am 22.9 NNW 7 9 1017.0 - 0.0 - - 10 - - - -
24/09:00am 22.5 NNW 5 6 1016.8 - 0.4 - - 10 - - - -
24/08:30am 22.2 NW 4 5 1016.5 - 0.4 - - 10 - - - -
24/08:00am 21.7 N 5 6 1016.3 - 0.4 - - 10 - - - -
24/07:30am 21.2 NW 4 5 1016.3 - 0.4 - - 10 - - - -
24/07:00am 20.8 NW 4 4 1016.1 - 0.4 - - 10 - - - -
24/06:30am 20.4 NW 5 5 1015.8 - 0.4 - - 10 - - - -
24/06:00am 20.5 NW 5 5 1015.3 - 0.4 - - 10 - - - -
24/05:30am 20.7 NW 4 5 1015.0 - 0.4 - - 10 - - - -
24/05:00am 20.9 NNW 4 5 1014.8 - 0.4 - - 10 - - - -
24/04:30am 20.7 N 4 5 1014.6 - 0.4 - - 10 - - - -
24/04:00am 20.7 NNW 3 4 1014.5 - 0.2 - - 10 - - - -
24/03:30am 20.5 NNW 3 4 1014.4 - 0.2 - - 10 - - - -
24/03:00am 20.5 NNW 5 6 1014.1 - 0.2 - - 10 - - - -
24/02:30am 20.4 NNW 5 6 1014.4 - 0.2 - - 10 - - - -
24/02:00am 20.4 NNW 5 6 1014.4 - 0.2 - - 10 - - - -
24/01:30am 20.6 CALM 0 0 1014.5 - 0.2 - - 10 - - - -
24/01:00am 20.7 CALM 0 0 1014.6 - 0.2 - - 10 - - - -
24/12:30am 20.8 CALM 0 0 1014.7 - 0.2 - - 10 - - - -
24/12:00am 20.7 CALM 0 0 1014.7 - 0.2 - - 10 - - - -
 
Date/Time
EST
Temp
°C
Wind Pressure Rain since
9am
mm
Weather Cloud Vis
km
Sea
Height
m
Swell
Dir  Spd
kts
Gust
kts
hPa Trend Height
m
Period
s
Dir
23/11:30pm 20.8 NW 4 4 1014.9 - 0.2 - - 10 - - - -
23/11:00pm 20.9 NW 4 5 1014.9 - 0.2 - - 10 - - - -
23/10:30pm 21.0 NNW 3 4 1015.0 - 0.2 - - 10 - - - -
23/10:00pm 21.2 NW 3 3 1015.0 - 0.2 - - 10 - - - -
23/09:30pm 21.3 NW 1 3 1014.8 - 0.2 - - 10 - - - -
23/09:00pm 21.4 NNW 1 4 1014.8 - 0.2 - - 10 - - - -
23/08:30pm 21.7 N 1 4 1014.6 - 0.2 - - 10 - - - -
23/08:00pm 21.7 CALM 0 3 1014.4 - 0.2 - - 10 - - - -
23/07:30pm 21.6 NNW 5 6 1014.3 - 0.2 - - 10 - - - -
23/07:00pm 22.0 N 5 5 1014.0 - 0.2 - - 10 - - - -
23/06:30pm 22.2 NW 3 4 1013.7 - 0.2 - - 10 - - - -
23/06:00pm 22.5 CALM 0 0 1013.2 - 0.2 - - 10 - - - -
23/05:30pm 23.4 NNW 4 5 1013.1 - 0.2 - - 10 - - - -
23/05:00pm 24.4 NW 5 6 1013.1 - 0.2 - - 10 - - - -
23/04:30pm 24.6 NNW 7 8 1012.9 - 0.2 - - 10 - - - -
23/04:00pm 23.7 S 2 7 1013.1 - 0.2 - - 10 - - - -
23/03:30pm 23.3 ESE 4 5 1013.0 - 0.2 - - 10 - - - -
23/03:00pm 22.8 SE 4 5 1012.8 - 0.2 - - 10 - - - -
23/02:30pm 22.5 SE 5 6 1013.3 - 0.2 - - 10 - - - -
23/02:00pm 22.3 SE 5 6 1013.7 - 0.2 - - 10 - - - -
23/01:30pm 22.1 SE 5 6 1014.0 - 0.2 - - 10 - - - -
23/01:00pm 21.6 ESE 5 6 1014.5 - 0.2 - - 10 - - - -
23/12:30pm 21.1 SE 5 6 1014.9 - 0.2 - - 10 - - - -
23/12:00pm 21.1 SE 5 6 1015.1 - 0.2 - - 10 - - - -
23/11:34am 20.9 SE 5 6 1015.6 - 0.2 - Partly cloudy 10 - - - -
23/11:30am 20.7 SE 5 6 1015.7 - 0.2 - Partly cloudy 10 - - - -
23/11:00am 20.9 SE 6 8 1016.1 - 0.2 - Partly cloudy 10 - - - -
23/10:30am 20.6 SE 7 8 1016.5 - 0.2 - Cloudy 10 - - - -
23/10:00am 21.3 SE 6 8 1016.6 - 0.2 - Partly cloudy 10 - - - -
23/09:30am 21.5 SE 5 7 1016.7 - 0.2 - Partly cloudy 10 - - - -
23/09:00am 20.7 SSE 4 6 1016.6 - 0.0 - Cloudy 10 - - - -
23/08:30am 20.7 SE 6 7 1016.3 - 0.0 - Cloudy 10 - - - -
23/08:00am 20.5 SSE 5 6 1016.2 - 0.0 - Cloudy 10 - - - -
23/07:30am 20.4 SE 4 6 1016.0 - 0.0 - Cloudy 10 - - - -
23/07:00am 20.3 S 4 6 1015.6 - 0.0 - Cloudy 10 - - - -
23/06:30am 20.3 CALM 0 0 1015.2 - 0.0 - Partly cloudy 10 - - - -
23/06:17am 20.3 CALM 0 0 1015.1 - 0.0 - Partly cloudy 7 - - - -
23/06:00am 20.2 CALM 0 0 1014.9 - 0.0 - Mostly clear 9 - - - -
23/05:30am 20.3 CALM 0 0 1014.6 - 0.0 - Partly cloudy 10 - - - -
23/05:00am 20.3 CALM 0 0 1014.5 - 0.0 - - 7 - - - -
23/04:30am 20.3 CALM 0 3 1014.3 - 0.0 - - 10 - - - -
23/04:00am 20.4 CALM 0 0 1014.2 - 0.0 - - 10 - - - -
23/03:30am 20.5 CALM 0 0 1014.2 - 0.0 - - 10 - - - -
23/03:02am 20.6 SW 1 3 1014.1 - 0.0 - Partly cloudy 10 - - - -
23/03:00am 20.6 SW 2 3 1013.9 - 0.0 - Mostly clear 10 - - - -
23/02:30am 20.6 SW 4 5 1014.4 - 0.0 - Partly cloudy 10 - - - -
23/02:14am 20.6 SW 6 7 1014.4 - 0.0 - Partly cloudy 10 - - - -
23/02:00am 20.5 WSW 3 5 1014.5 - 0.0 - Partly cloudy 10 - - - -
23/01:30am 20.4 CALM 0 0 1014.6 - 0.0 - - 10 - - - -
23/01:00am 20.5 CALM 0 0 1015.0 - 0.0 - - 10 - - - -
23/12:30am 20.6 CALM 0 0 1015.2 - 0.0 - - 10 - - - -
23/12:00am 20.7 CALM 0 0 1015.3 - 0.0 - - 10 - - - -
 
Date/Time
EST
Temp
°C
Wind Pressure Rain since
9am
mm
Weather Cloud Vis
km
Sea
Height
m
Swell
Dir  Spd
kts
Gust
kts
hPa Trend Height
m
Period
s
Dir
22/11:30pm 20.9 NE 4 5 1015.6 - 0.0 - - 10 - - - -
22/11:00pm 20.9 NE 4 5 1015.7 - 0.0 - - 10 - - - -
22/10:30pm 20.7 NE 4 5 1015.7 - 0.0 - - 10 - - - -
22/10:00pm 20.9 NE 3 5 1015.7 - 0.0 - - 10 - - - -
22/09:30pm 20.9 NE 4 5 1015.4 - 0.0 - - 10 - - - -
22/09:00pm 20.9 ENE 5 6 1015.3 - 0.0 - - 10 - - - -
22/08:30pm 20.9 ENE 3 5 1015.4 - 0.0 - - 10 - - - -
22/08:00pm 21.1 E 4 5 1015.3 - 0.0 - - 10 - - - -
22/07:30pm 21.0 E 5 6 1015.3 - 0.0 - - 10 - - - -
22/07:00pm 21.1 E 5 6 1015.3 - 0.0 - - 10 - - - -
22/06:30pm 21.3 E 7 8 1015.1 - 0.0 - - 10 - - - -
22/06:00pm 21.4 E 6 8 1014.9 - 0.0 - - 10 - - - -
22/05:30pm 21.5 ESE 5 5 1015.0 - 0.0 - - 10 - - - -
22/05:00pm 21.7 ESE 5 6 1014.9 - 0.0 - - 10 - - - -
22/04:30pm 21.9 SE 5 6 1014.9 - 0.0 - - 10 - - - -
22/04:00pm 22.0 SE 6 8 1014.8 - 0.0 - - 10 - - - -
22/03:30pm 22.1 SE 7 8 1014.9 - 0.0 - - 10 - - - -
22/03:00pm 22.2 SE 7 8 1014.9 - 0.0 - - 10 - - - -
22/02:30pm 22.5 SSE 7 8 1015.0 - 0.0 - - 10 - - - -
22/02:00pm 22.6 SSE 7 9 1015.2 - 0.0 - - 10 - - - -
22/01:30pm 22.5 SSE 7 9 1015.5 - 0.0 - - 10 - - - -
22/01:00pm 22.3 SSE 8 10 1015.9 - 0.0 - - 10 - - - -
22/12:30pm 22.4 SSE 8 9 1016.3 - 0.0 - - - - - - -
22/12:00pm 22.3 SSE 8 11 1016.5 - 0.0 - Mostly clear 10 - - - -
22/11:47am 22.7 SSE 8 11 1016.8 - 0.0 - Partly cloudy 10 - - - -
22/11:30am 22.2 SSE 8 11 1016.9 - 0.0 - Partly cloudy 10 - - - -
22/11:28am 22.0 SSE 8 11 1017.0 - 0.0 - Partly cloudy 10 - - - -
22/11:00am 22.3 SSE 9 11 1017.2 - 0.0 - Partly cloudy 10 - - - -
22/10:59am 22.2 SSE 9 11 1017.2 - 0.0 - Partly cloudy 10 - - - -
22/10:30am 22.4 SSE 6 9 1017.5 - 0.0 - Partly cloudy 10 - - - -
22/10:21am 22.5 SSE 8 10 1017.6 - 0.0 - Partly cloudy 10 - - - -

Other Formats:

Comma delimited format used in spreadsheet applications
http://www.bom.gov.au/fwo/IDQ60701/IDQ60701.94368.axf

JavaScript Object Notation format (JSON) in row-major order
http://www.bom.gov.au/fwo/IDQ60701/IDQ60701.94368.json